createdAt,value
2023-06-29T00:00:45.810Z,19.20
2023-06-29T00:03:14.016Z,19.10
2023-06-29T00:05:43.409Z,18.60
2023-06-29T00:08:12.900Z,18.80
2023-06-29T00:10:41.326Z,19.60
2023-06-29T00:13:09.370Z,18.30
2023-06-29T00:18:07.285Z,19.10
2023-06-29T00:23:04.948Z,19.20
2023-06-29T00:28:01.954Z,19.20
2023-06-29T00:30:30.361Z,19.10
2023-06-29T00:32:58.456Z,19.20
2023-06-29T00:35:27.909Z,18.70
2023-06-29T00:37:56.135Z,19.10
2023-06-29T00:40:24.622Z,18.90
2023-06-29T00:42:52.737Z,17.80
2023-06-29T00:47:49.490Z,17.80
2023-06-29T00:50:18.204Z,18.00
2023-06-29T00:52:47.820Z,18.10
2023-06-29T00:55:15.917Z,18.40
2023-06-29T00:57:44.118Z,18.20
2023-06-29T01:00:13.919Z,18.70
2023-06-29T01:02:42.873Z,19.30
2023-06-29T01:05:12.504Z,18.70
2023-06-29T01:07:46.506Z,18.70
2023-06-29T01:10:19.650Z,19.20
2023-06-29T01:12:51.157Z,18.90
2023-06-29T01:15:20.554Z,18.50
2023-06-29T01:17:50.781Z,19.20
2023-06-29T01:20:20.941Z,18.70
2023-06-29T01:22:58.221Z,19.30
2023-06-29T01:25:29.021Z,18.70
2023-06-29T01:35:22.859Z,18.00
2023-06-29T01:37:57.988Z,18.30
2023-06-29T01:40:30.281Z,18.10
2023-06-29T01:42:59.242Z,19.60
2023-06-29T01:45:28.239Z,18.60
2023-06-29T01:47:58.067Z,18.10
2023-06-29T01:50:27.024Z,18.70
2023-06-29T01:52:55.088Z,19.10
2023-06-29T01:57:53.157Z,19.10
2023-06-29T02:00:22.127Z,19.00
2023-06-29T02:02:50.924Z,19.00
2023-06-29T02:07:48.809Z,19.10
2023-06-29T02:10:17.122Z,18.60
2023-06-29T02:12:45.269Z,19.20
2023-06-29T02:15:14.804Z,19.10
2023-06-29T02:20:12.068Z,18.70
2023-06-29T02:25:12.351Z,18.80
2023-06-29T02:30:10.139Z,19.20
2023-06-29T02:32:39.865Z,17.90
2023-06-29T02:35:08.724Z,18.70
2023-06-29T02:40:06.588Z,19.10
2023-06-29T02:42:34.828Z,17.80
2023-06-29T02:45:03.017Z,18.00
2023-06-29T02:50:01.569Z,18.00
2023-06-29T02:52:29.658Z,17.80
2023-06-29T02:54:57.701Z,19.20
2023-06-29T02:57:25.779Z,19.20
2023-06-29T03:04:50.632Z,18.80
2023-06-29T03:07:20.122Z,18.00
2023-06-29T03:09:48.410Z,18.20
2023-06-29T03:24:41.038Z,17.90
2023-06-29T03:27:09.601Z,19.20
2023-06-29T03:32:07.172Z,17.70
2023-06-29T03:34:35.289Z,18.00
2023-06-29T03:42:02.165Z,18.30
2023-06-29T03:44:30.557Z,17.70
2023-06-29T03:56:52.394Z,18.70
2023-06-29T03:59:21.963Z,18.50
2023-06-29T04:01:50.195Z,18.90
2023-06-29T04:09:15.276Z,19.10
2023-06-29T04:14:12.292Z,19.20
2023-06-29T04:16:42.413Z,18.60
2023-06-29T04:21:39.408Z,19.00
2023-06-29T04:24:07.860Z,19.20
2023-06-29T04:26:36.187Z,18.80
2023-06-29T04:29:07.098Z,18.50
2023-06-29T04:31:35.372Z,18.90
2023-06-29T04:34:04.856Z,18.60
2023-06-29T04:39:02.225Z,19.10
2023-06-29T04:41:33.735Z,18.10
2023-06-29T04:46:32.289Z,19.20
2023-06-29T04:49:07.851Z,19.60
2023-06-29T04:51:38.573Z,19.20
2023-06-29T04:54:07.568Z,19.20
2023-06-29T04:56:35.663Z,19.40
2023-06-29T04:59:03.834Z,19.30
2023-06-29T05:01:32.057Z,19.20
2023-06-29T05:04:02.653Z,19.10
2023-06-29T05:09:01.055Z,16.40
2023-06-29T05:11:29.183Z,19.30
2023-06-29T05:16:25.883Z,19.50
2023-06-29T05:18:54.146Z,19.60
2023-06-29T05:21:22.809Z,19.50
2023-06-29T05:26:20.618Z,19.80
2023-06-29T05:29:03.800Z,19.90
2023-06-29T05:31:33.699Z,20.10
2023-06-29T05:34:01.975Z,19.40
2023-06-29T05:36:30.584Z,19.40
2023-06-29T05:38:58.888Z,19.40
2023-06-29T05:41:28.471Z,19.60
2023-06-29T05:46:25.189Z,20.60
2023-06-29T05:48:53.231Z,21.30
2023-06-29T05:51:21.364Z,20.10
2023-06-29T05:53:49.426Z,20.90
2023-06-29T05:56:17.665Z,20.80
2023-06-29T05:58:48.350Z,20.10
2023-06-29T06:01:16.638Z,21.10
2023-06-29T06:03:44.780Z,21.20
2023-06-29T06:06:13.036Z,21.10
2023-06-29T06:08:41.113Z,20.30
2023-06-29T06:11:09.277Z,21.30
2023-06-29T06:13:37.483Z,21.10
2023-06-29T06:16:07.260Z,21.00
2023-06-29T06:18:35.468Z,21.20
2023-06-29T06:21:04.352Z,21.30
2023-06-29T06:23:34.329Z,21.30
2023-06-29T06:26:03.434Z,21.30
2023-06-29T06:28:31.629Z,21.30
2023-06-29T06:30:59.748Z,21.10
2023-06-29T06:33:31.328Z,21.20
2023-06-29T06:36:00.012Z,21.40
2023-06-29T06:38:44.697Z,21.10
2023-06-29T06:41:13.104Z,18.70
2023-06-29T06:43:41.163Z,21.10
2023-06-29T06:46:09.298Z,21.20
2023-06-29T06:48:39.051Z,20.90
2023-06-29T06:51:07.142Z,21.50
2023-06-29T06:53:35.259Z,21.30
2023-06-29T06:56:03.340Z,21.50
2023-06-29T07:00:59.880Z,21.70
2023-06-29T07:03:28.143Z,21.40
2023-06-29T07:05:59.209Z,21.70
2023-06-29T07:08:28.889Z,21.80
2023-06-29T07:10:57.009Z,22.00
2023-06-29T07:13:25.441Z,22.70
2023-06-29T07:15:53.601Z,22.40
2023-06-29T07:18:22.449Z,23.00
2023-06-29T07:25:54.452Z,22.90
2023-06-29T07:28:22.536Z,22.70
2023-06-29T07:30:52.001Z,23.10
2023-06-29T07:33:20.216Z,22.50
2023-06-29T07:35:48.645Z,22.50
2023-06-29T07:38:16.767Z,22.90
2023-06-29T07:40:48.655Z,22.50
2023-06-29T07:43:17.947Z,22.70
2023-06-29T07:45:46.620Z,22.70
2023-06-29T07:48:15.299Z,22.80
2023-06-29T07:50:44.325Z,22.90
2023-06-29T07:53:12.458Z,23.10
2023-06-29T07:55:40.578Z,23.20
2023-06-29T08:00:40.932Z,23.00
2023-06-29T08:03:09.440Z,23.00
2023-06-29T08:08:08.540Z,23.40
2023-06-29T08:10:36.709Z,22.90
2023-06-29T08:13:06.164Z,22.80
2023-06-29T08:15:35.845Z,23.00
2023-06-29T08:18:04.028Z,23.20
2023-06-29T08:20:32.156Z,23.20
2023-06-29T08:23:00.234Z,23.20
2023-06-29T08:25:28.636Z,23.10
2023-06-29T08:27:56.761Z,23.20
2023-06-29T08:30:24.954Z,23.40
2023-06-29T08:32:54.557Z,23.60
2023-06-29T08:35:22.849Z,23.70
2023-06-29T08:37:51.406Z,23.70
2023-06-29T08:40:22.696Z,23.50
2023-06-29T08:42:50.987Z,23.50
2023-06-29T08:45:19.529Z,23.60
2023-06-29T08:47:52.628Z,23.60
2023-06-29T08:50:27.738Z,23.80
2023-06-29T08:52:56.715Z,24.00
2023-06-29T08:55:26.045Z,24.10
2023-06-29T08:57:55.492Z,24.30
2023-06-29T09:00:25.841Z,24.40
2023-06-29T09:02:56.550Z,24.20
2023-06-29T09:05:26.683Z,24.40
2023-06-29T09:07:55.269Z,24.60
2023-06-29T09:10:23.750Z,24.50
2023-06-29T09:12:53.375Z,24.60
2023-06-29T09:15:22.953Z,24.80
2023-06-29T09:17:56.874Z,24.70
2023-06-29T09:20:28.649Z,24.60
2023-06-29T09:22:56.842Z,24.60
2023-06-29T09:25:34.894Z,24.60
2023-06-29T09:28:05.131Z,24.80
2023-06-29T09:30:38.326Z,24.90
2023-06-29T09:33:11.177Z,24.50
2023-06-29T09:35:42.603Z,24.60
2023-06-29T09:38:10.622Z,24.70
2023-06-29T09:40:49.580Z,24.80
2023-06-29T09:43:18.816Z,24.80
2023-06-29T09:45:47.131Z,24.60
2023-06-29T09:50:53.031Z,24.80
2023-06-29T09:53:30.029Z,24.90
2023-06-29T09:56:00.855Z,25.00
2023-06-29T09:58:29.670Z,25.00
2023-06-29T10:00:59.689Z,25.00
2023-06-29T10:03:29.430Z,25.10
2023-06-29T10:06:05.516Z,25.40
2023-06-29T10:08:36.778Z,25.80
2023-06-29T10:11:07.161Z,26.00
2023-06-29T10:13:39.857Z,26.40
2023-06-29T10:16:12.615Z,26.70
2023-06-29T10:18:45.320Z,26.40
2023-06-29T10:21:15.475Z,26.50
2023-06-29T10:23:45.247Z,26.50
2023-06-29T10:26:14.505Z,26.20
2023-06-29T10:28:43.450Z,26.00
2023-06-29T10:31:11.717Z,25.90
2023-06-29T10:33:49.443Z,25.80
2023-06-29T10:36:19.712Z,25.50
2023-06-29T10:38:47.989Z,25.20
2023-06-29T10:41:29.400Z,25.00
2023-06-29T10:43:59.237Z,24.90
2023-06-29T10:46:46.578Z,24.60
2023-06-29T10:49:24.891Z,24.60
2023-06-29T10:51:55.225Z,24.40
2023-06-29T10:54:24.652Z,24.40
2023-06-29T10:57:00.433Z,24.40
2023-06-29T10:59:29.145Z,24.40
2023-06-29T11:01:57.768Z,24.40
2023-06-29T11:04:26.325Z,24.50
2023-06-29T11:06:56.055Z,24.60
2023-06-29T11:09:24.354Z,24.80
2023-06-29T11:11:52.489Z,24.60
2023-06-29T11:14:20.966Z,24.60
2023-06-29T11:16:49.521Z,24.50
2023-06-29T11:19:18.315Z,24.50
2023-06-29T11:21:46.474Z,24.50
2023-06-29T11:24:20.021Z,24.60
2023-06-29T11:26:48.436Z,24.50
2023-06-29T11:29:16.528Z,24.60
2023-06-29T11:31:44.685Z,24.70
2023-06-29T11:34:15.262Z,24.60
2023-06-29T11:36:52.797Z,24.80
2023-06-29T11:39:33.156Z,23.60
2023-06-29T11:42:01.923Z,24.80
2023-06-29T11:44:30.189Z,24.10
2023-06-29T11:47:12.081Z,24.80
2023-06-29T11:49:51.252Z,24.90
2023-06-29T11:52:19.843Z,24.90
2023-06-29T11:54:49.353Z,24.80
2023-06-29T11:57:19.592Z,24.90
2023-06-29T11:59:48.063Z,24.90
2023-06-29T12:02:16.942Z,24.70
2023-06-29T12:04:58.618Z,24.50
2023-06-29T12:07:37.796Z,24.30
2023-06-29T12:10:10.348Z,24.30
2023-06-29T12:12:39.440Z,24.40
2023-06-29T12:15:17.719Z,24.30
2023-06-29T12:20:18.739Z,24.10
2023-06-29T12:22:49.244Z,24.00
2023-06-29T12:25:20.071Z,24.10
2023-06-29T12:27:49.804Z,24.20
2023-06-29T12:30:21.806Z,24.30
2023-06-29T12:32:50.802Z,23.30
2023-06-29T12:35:20.097Z,24.30
2023-06-29T12:37:48.202Z,24.20
2023-06-29T12:40:17.162Z,24.20
2023-06-29T12:42:46.805Z,24.10
2023-06-29T12:45:14.998Z,24.10
2023-06-29T12:47:43.639Z,23.90
2023-06-29T12:50:12.564Z,23.90
2023-06-29T12:52:40.742Z,24.00
2023-06-29T12:55:09.548Z,24.10
2023-06-29T12:57:39.699Z,24.20
2023-06-29T13:00:11.044Z,24.30
2023-06-29T13:02:39.442Z,24.20
2023-06-29T13:05:07.949Z,24.30
2023-06-29T13:07:36.996Z,24.50
2023-06-29T13:10:06.271Z,24.60
2023-06-29T13:12:34.382Z,24.80
2023-06-29T13:15:02.416Z,24.80
2023-06-29T13:17:31.838Z,25.10
2023-06-29T13:20:00.071Z,25.20
2023-06-29T13:22:28.312Z,25.30
2023-06-29T13:24:56.487Z,25.40
2023-06-29T13:27:24.834Z,25.60
2023-06-29T13:29:52.871Z,25.80
2023-06-29T13:32:20.896Z,25.80
2023-06-29T13:34:50.445Z,25.90
2023-06-29T13:37:19.842Z,26.20
2023-06-29T13:39:49.381Z,26.20
2023-06-29T13:42:18.012Z,26.20
2023-06-29T13:44:47.057Z,22.90
2023-06-29T13:47:23.376Z,26.30
2023-06-29T13:49:53.050Z,26.20
2023-06-29T13:52:21.533Z,26.20
2023-06-29T13:54:49.900Z,26.20
2023-06-29T13:57:17.993Z,26.10
2023-06-29T13:59:48.079Z,26.10
2023-06-29T14:02:16.441Z,25.90
2023-06-29T14:04:44.803Z,25.70
2023-06-29T14:07:16.144Z,25.60
2023-06-29T14:09:44.424Z,25.40
2023-06-29T14:12:12.607Z,25.30
2023-06-29T14:14:41.933Z,25.00
2023-06-29T14:17:09.976Z,24.80
2023-06-29T14:19:38.056Z,24.70
2023-06-29T14:22:07.380Z,22.90
2023-06-29T14:24:36.763Z,24.40
2023-06-29T14:27:05.392Z,24.30
2023-06-29T14:29:33.439Z,24.30
2023-06-29T14:32:01.507Z,24.20
2023-06-29T14:34:29.682Z,24.00
2023-06-29T14:36:57.766Z,24.00
2023-06-29T14:39:25.824Z,23.90
2023-06-29T14:41:56.685Z,23.90
2023-06-29T14:44:25.500Z,23.70
2023-06-29T14:46:53.658Z,23.60
2023-06-29T14:49:21.702Z,23.60
2023-06-29T14:51:49.785Z,23.60
2023-06-29T14:54:19.681Z,23.60
2023-06-29T14:56:47.837Z,23.60
2023-06-29T14:59:17.458Z,23.50
2023-06-29T15:01:45.723Z,23.50
2023-06-29T15:04:13.903Z,23.70
2023-06-29T15:06:43.301Z,23.70
2023-06-29T15:09:11.465Z,23.70
2023-06-29T15:11:39.638Z,23.90
2023-06-29T15:14:07.741Z,23.90
2023-06-29T15:16:37.241Z,24.10
2023-06-29T15:19:05.381Z,24.10
2023-06-29T15:21:33.499Z,24.10
2023-06-29T15:24:02.723Z,24.20
2023-06-29T15:26:30.912Z,24.40
2023-06-29T15:28:59.220Z,24.50
2023-06-29T15:31:27.790Z,24.60
2023-06-29T15:33:57.237Z,24.70
2023-06-29T15:36:25.494Z,24.90
2023-06-29T15:38:53.603Z,25.00
2023-06-29T15:41:21.735Z,24.90
2023-06-29T15:43:50.060Z,24.80
2023-06-29T15:46:18.659Z,24.80
2023-06-29T15:48:46.870Z,24.80
2023-06-29T15:51:16.605Z,24.70
2023-06-29T15:53:44.677Z,24.70
2023-06-29T15:56:12.802Z,24.70
2023-06-29T15:58:42.218Z,24.70
2023-06-29T16:01:10.524Z,24.70
2023-06-29T16:03:39.655Z,24.60
2023-06-29T16:06:07.900Z,24.60
2023-06-29T16:08:37.524Z,24.50
2023-06-29T16:11:05.686Z,24.50
2023-06-29T16:13:33.835Z,24.40
2023-06-29T16:16:02.135Z,24.30
2023-06-29T16:18:30.398Z,24.40
2023-06-29T16:20:58.500Z,24.40
2023-06-29T16:23:26.644Z,24.40
2023-06-29T16:25:57.082Z,24.40
2023-06-29T16:28:25.234Z,24.50
2023-06-29T16:30:53.477Z,24.30
2023-06-29T16:33:21.763Z,24.40
2023-06-29T16:35:49.905Z,24.40
2023-06-29T16:38:17.983Z,24.50
2023-06-29T16:40:47.115Z,24.50
2023-06-29T16:43:17.181Z,24.50
2023-06-29T16:45:46.876Z,24.40
2023-06-29T16:48:15.430Z,24.30
2023-06-29T16:50:43.589Z,22.70
2023-06-29T16:53:11.733Z,24.20
2023-06-29T16:55:39.884Z,24.20
2023-06-29T16:58:07.983Z,24.10
2023-06-29T17:00:37.598Z,24.10
2023-06-29T17:03:05.815Z,24.10
2023-06-29T17:05:34.025Z,24.10
2023-06-29T17:08:02.478Z,24.10
2023-06-29T17:10:30.530Z,24.10
2023-06-29T17:12:58.645Z,24.10
2023-06-29T17:15:26.734Z,24.20
2023-06-29T17:17:56.324Z,24.20
2023-06-29T17:20:24.550Z,24.20
2023-06-29T17:22:52.581Z,24.20
2023-06-29T17:25:20.655Z,24.20
2023-06-29T17:27:48.847Z,24.20
2023-06-29T17:30:17.124Z,24.20
2023-06-29T17:32:45.309Z,24.20
2023-06-29T17:35:15.032Z,24.10
2023-06-29T17:37:43.256Z,24.10
2023-06-29T17:40:11.649Z,24.10
2023-06-29T17:42:39.913Z,24.00
2023-06-29T17:45:09.789Z,23.90
2023-06-29T17:47:37.918Z,23.80
2023-06-29T17:50:06.842Z,23.80
2023-06-29T17:52:36.646Z,23.70
2023-06-29T17:55:05.974Z,23.50
2023-06-29T17:57:34.237Z,23.50
2023-06-29T18:00:04.281Z,23.20
2023-06-29T18:02:32.599Z,23.20
2023-06-29T18:05:00.851Z,23.20
2023-06-29T18:07:29.259Z,23.10
2023-06-29T18:10:00.452Z,23.00
2023-06-29T18:12:28.670Z,23.10
2023-06-29T18:14:57.275Z,23.10
2023-06-29T18:17:25.354Z,23.00
2023-06-29T18:19:53.459Z,22.90
2023-06-29T18:22:21.571Z,22.80
2023-06-29T18:24:49.801Z,22.70
2023-06-29T18:27:19.246Z,22.70
2023-06-29T18:29:47.461Z,22.70
2023-06-29T18:32:15.844Z,22.60
2023-06-29T18:34:44.294Z,22.60
2023-06-29T18:37:12.369Z,22.40
2023-06-29T18:39:40.427Z,22.40
2023-06-29T18:42:09.597Z,22.50
2023-06-29T18:44:39.832Z,22.20
2023-06-29T18:47:11.244Z,22.20
2023-06-29T18:52:11.958Z,22.20
2023-06-29T18:54:40.144Z,22.40
2023-06-29T18:57:11.369Z,22.20
2023-06-29T18:59:43.325Z,22.30
2023-06-29T19:02:11.892Z,22.30
2023-06-29T19:04:40.034Z,22.40
2023-06-29T19:07:08.573Z,22.40
2023-06-29T19:09:36.711Z,22.80
2023-06-29T19:12:05.313Z,22.30
2023-06-29T19:14:33.483Z,21.80
2023-06-29T19:17:03.322Z,22.20
2023-06-29T19:19:31.547Z,22.20
2023-06-29T19:21:59.548Z,22.00
2023-06-29T19:24:27.631Z,22.00
2023-06-29T19:26:55.770Z,21.90
2023-06-29T19:29:25.398Z,21.90
2023-06-29T19:31:53.706Z,21.80
2023-06-29T19:34:23.163Z,22.60
2023-06-29T19:36:51.322Z,21.70
2023-06-29T19:39:20.279Z,21.70
2023-06-29T19:41:48.557Z,21.70
2023-06-29T19:44:16.601Z,21.60
2023-06-29T19:46:46.628Z,21.60
2023-06-29T19:49:14.750Z,21.50
2023-06-29T19:51:44.201Z,21.50
2023-06-29T19:54:12.708Z,21.50
2023-06-29T19:56:40.961Z,21.40
2023-06-29T19:59:09.170Z,21.40
2023-06-29T20:01:37.371Z,21.30
2023-06-29T20:04:06.045Z,21.20
2023-06-29T20:06:34.226Z,21.00
2023-06-29T20:09:04.511Z,21.10
2023-06-29T20:11:32.644Z,21.00
2023-06-29T20:14:01.002Z,20.50
2023-06-29T20:16:29.677Z,21.30
2023-06-29T20:18:58.318Z,20.80
2023-06-29T20:21:26.744Z,18.00
2023-06-29T20:23:54.872Z,20.60
2023-06-29T20:26:24.424Z,20.60
2023-06-29T20:28:52.550Z,21.10
2023-06-29T20:31:20.643Z,20.10
2023-06-29T20:33:48.849Z,20.70
2023-06-29T20:36:17.465Z,20.00
2023-06-29T20:38:45.705Z,20.40
2023-06-29T20:41:14.360Z,20.50
2023-06-29T20:43:47.309Z,20.40
2023-06-29T20:46:16.327Z,19.80
2023-06-29T20:48:44.659Z,20.60
2023-06-29T20:51:18.244Z,21.20
2023-06-29T20:53:46.784Z,20.60
2023-06-29T20:56:14.871Z,19.40
2023-06-29T20:58:44.295Z,21.10
2023-06-29T21:03:44.900Z,19.70
2023-06-29T21:06:13.575Z,20.90
2023-06-29T21:08:42.046Z,20.30
2023-06-29T21:11:10.464Z,20.90
2023-06-29T21:13:39.105Z,21.20
2023-06-29T21:16:09.437Z,20.90
2023-06-29T21:18:38.285Z,20.60
2023-06-29T21:21:10.891Z,20.60
2023-06-29T21:23:39.376Z,20.80
2023-06-29T21:26:07.966Z,23.50
2023-06-29T21:28:37.262Z,21.10
2023-06-29T21:31:05.880Z,20.20
2023-06-29T21:33:36.961Z,20.60
2023-06-29T21:36:07.207Z,20.70
2023-06-29T21:38:36.315Z,20.00
2023-06-29T21:41:04.357Z,21.40
2023-06-29T21:43:32.648Z,20.80
2023-06-29T21:46:00.828Z,20.30
2023-06-29T21:48:28.916Z,20.80
2023-06-29T21:50:58.389Z,20.80
2023-06-29T21:53:26.499Z,21.10
2023-06-29T21:55:55.937Z,21.00
2023-06-29T21:58:26.808Z,21.00
2023-06-29T22:00:55.044Z,20.70
2023-06-29T22:03:38.572Z,21.10
2023-06-29T22:06:08.154Z,20.70
2023-06-29T22:08:36.211Z,19.90
2023-06-29T22:13:33.032Z,21.00
2023-06-29T22:16:01.107Z,20.90
2023-06-29T22:18:29.301Z,21.10
2023-06-29T22:20:57.870Z,20.70
2023-06-29T22:23:27.392Z,20.80
2023-06-29T22:25:55.621Z,21.00
2023-06-29T22:28:24.415Z,20.90
2023-06-29T22:30:52.595Z,21.10
2023-06-29T22:33:20.770Z,20.80
2023-06-29T22:35:49.328Z,19.50
2023-06-29T22:38:17.732Z,19.90
2023-06-29T22:40:47.309Z,19.80
2023-06-29T22:43:15.422Z,20.30
2023-06-29T22:45:43.674Z,19.80
2023-06-29T22:48:11.899Z,19.90
2023-06-29T22:50:39.970Z,19.60
2023-06-29T22:53:08.035Z,20.10
2023-06-29T22:55:36.149Z,20.60
2023-06-29T22:58:05.585Z,19.60
2023-06-29T23:00:33.797Z,19.30
2023-06-29T23:03:02.151Z,19.60
2023-06-29T23:07:58.759Z,19.60
2023-06-29T23:12:56.982Z,19.20
2023-06-29T23:15:27.313Z,19.90
2023-06-29T23:17:55.599Z,19.50
2023-06-29T23:22:58.369Z,19.60
2023-06-29T23:25:27.090Z,19.50
2023-06-29T23:30:23.509Z,19.30
2023-06-29T23:32:53.187Z,20.20
2023-06-29T23:35:22.153Z,19.40
2023-06-29T23:37:50.219Z,19.70
2023-06-29T23:40:18.395Z,19.00
2023-06-29T23:42:46.659Z,19.40
2023-06-29T23:45:15.251Z,19.60
2023-06-29T23:47:43.430Z,19.60
2023-06-29T23:50:14.267Z,19.30
2023-06-29T23:52:43.445Z,19.50
2023-06-29T23:55:13.499Z,19.20
2023-06-29T23:57:42.587Z,19.30
